YUKO2: Yukon 2NNE(N Canadian R)

Data processed at Sat Mar 10 2018 23:42


All information presented herein is the property of the government of the United States of America and may be revised or deleted at any time without prior notice.
Dissemination of this information without the expressed written consent of the Public Affairs Office, Tulsa District U.S. Army Corps of Engineers is strictly prohibited.
These data are gathered electronically and, as presented, have not undergone any form of quality control. These data are not guaranteed to be valid or correct.
Go to home page.
Go to station list.

Upstream stations:

Downstream station:
Previous Day
Next Day
Current Day
    
SHEF ID:       YUKO2     North Canadian River near Yukon,
STATION TYPE:  

                STAGE  STAGE(2)  RIV-FLOW  WTR-TEMP   CONDUCT  BAT-LOAD
                   ft        ft       cfs         F   umho/cm      volt
              Ccp-Rev   Ccp-Rev   Ccp-Rev   Ccp-Rev   Ccp-Rev   Ccp-Rev
(US/Central)
03/08 00:00      1.57      1.63        68     50.22      1452     12.83
03/08 01:00      1.58      1.63        69     49.51      1455     12.77
03/08 02:00      1.57      1.63        68     48.94      1458     12.71
03/08 03:00      1.56      1.63        67     48.24      1468     12.71
03/08 04:00      1.55      1.63        66     47.59      1470     12.65
03/08 05:00      1.55      1.63        66     46.92      1475     12.65
03/08 06:00      1.54      1.63        65     46.26      1479     12.65
03/08 07:00      1.54      1.63        65     45.64      1485     12.65
03/08 08:00      1.51      1.63        62     45.36      1488     12.77
03/08 09:00      1.48      1.63        60     45.86      1483     13.83
03/08 10:00      1.47      1.63        59     47.28      1476     14.53
03/08 11:00      1.47      1.63        59     49.37      1461     14.53
03/08 12:00      1.47      1.63        59     51.19      1451     14.47
03/08 13:00      1.46      1.63        58     53.20      1445     14.41
03/08 14:00      1.46      1.63        58     55.90      1441     14.35
03/08 15:00      1.45      1.63        57     57.31      1429     14.30
03/08 16:00      1.45      1.63        57     58.30      1430     14.30
03/08 17:00      1.45      1.63        57     57.69      1418     14.24
03/08 18:00      1.45      1.63        57     56.71      1417     14.12
03/08 19:00      1.47      1.63        59     55.78      1431     13.53
03/08 20:00      1.47      1.63        59     54.81      1432     13.12
03/08 21:00      1.49      1.63        61     54.05      1435     12.95
03/08 22:00      1.49      1.63        61     53.24      1435     12.89
03/08 23:00      1.49      1.63        61     52.56      1437     12.89